createdAt,value
2022-11-05T00:04:32.380Z,99835.78
2022-11-05T00:09:33.346Z,99842.16
2022-11-05T00:14:45.539Z,99838.44
2022-11-05T00:19:38.926Z,99827.44
2022-11-05T00:24:51.127Z,99797.75
2022-11-05T00:29:44.857Z,99847.31
2022-11-05T00:34:38.111Z,99848.28
2022-11-05T00:39:31.906Z,99842.16
2022-11-05T00:44:44.154Z,99826.31
2022-11-05T00:49:38.276Z,99854.53
2022-11-05T00:54:32.254Z,99849.34
2022-11-05T00:59:27.448Z,99867.88
2022-11-05T01:04:21.315Z,99833.44
2022-11-05T01:09:15.650Z,99875.22
2022-11-05T01:14:13.535Z,99879.34
2022-11-05T01:19:09.937Z,99881.78
2022-11-05T01:24:03.555Z,99886.88
2022-11-05T01:28:58.554Z,99902.50
2022-11-05T01:33:51.817Z,99906.13
2022-11-05T01:38:44.623Z,99916.69
2022-11-05T01:43:50.282Z,99908.13
2022-11-05T01:48:43.783Z,99916.81
2022-11-05T01:53:36.305Z,99909.81
2022-11-05T01:58:52.642Z,99904.53
2022-11-05T02:03:47.480Z,99887.84
2022-11-05T02:09:27.965Z,99902.00
2022-11-05T02:14:21.983Z,99891.84
2022-11-05T02:19:27.306Z,99913.66
2022-11-05T02:24:53.172Z,99911.03
2022-11-05T02:30:00.196Z,99884.53
2022-11-05T02:35:09.922Z,99914.81
2022-11-05T02:40:15.680Z,99913.75
2022-11-05T02:45:38.261Z,99925.63
2022-11-05T02:50:38.620Z,99946.72
2022-11-05T02:55:39.843Z,99927.31
2022-11-05T03:01:06.905Z,99928.25
2022-11-05T03:06:29.667Z,99947.75
2022-11-05T03:11:27.298Z,99934.53
2022-11-05T03:16:50.018Z,99947.56
2022-11-05T03:22:12.637Z,99964.47
2022-11-05T03:27:20.457Z,99977.91
2022-11-05T03:32:16.115Z,99978.66
2022-11-05T03:37:11.803Z,99977.41
2022-11-05T03:42:07.847Z,99994.53
2022-11-05T03:47:11.725Z,99976.84
2022-11-05T03:52:15.118Z,99996.38
2022-11-05T03:57:16.029Z,100003.44
2022-11-05T04:02:11.680Z,99990.31
2022-11-05T04:07:23.974Z,100004.06
2022-11-05T04:12:35.166Z,100024.72
2022-11-05T04:17:29.229Z,100012.56
2022-11-05T04:22:42.887Z,100028.53
2022-11-05T04:27:37.089Z,100041.13
2022-11-05T04:32:30.984Z,100042.06
2022-11-05T04:37:24.964Z,100045.47
2022-11-05T04:42:19.096Z,100035.81
2022-11-05T04:47:12.439Z,100067.59
2022-11-05T04:52:06.111Z,100059.31
2022-11-05T04:57:00.349Z,100042.22
2022-11-05T05:01:53.712Z,100054.41
2022-11-05T05:06:47.589Z,100053.66
2022-11-05T05:11:41.855Z,100080.28
2022-11-05T05:16:35.105Z,100078.59
2022-11-05T05:21:41.919Z,100073.28
2022-11-05T05:26:35.653Z,100092.00
2022-11-05T05:31:28.938Z,100086.59
2022-11-05T05:36:23.357Z,100095.72
2022-11-05T05:41:17.188Z,100099.09
2022-11-05T05:46:13.482Z,100092.97
2022-11-05T05:51:09.959Z,100108.00
2022-11-05T05:56:04.411Z,100097.88
2022-11-05T06:01:01.726Z,100111.59
2022-11-05T06:05:54.847Z,100110.72
2022-11-05T06:11:10.696Z,100120.47
2022-11-05T06:16:06.448Z,100133.59
2022-11-05T06:21:04.712Z,100114.25
2022-11-05T06:26:00.644Z,100144.38
2022-11-05T06:30:53.370Z,100154.28
2022-11-05T06:35:46.961Z,100136.66
2022-11-05T06:40:41.028Z,100169.31
2022-11-05T06:45:34.976Z,100194.91
2022-11-05T06:50:29.885Z,100175.56
2022-11-05T06:55:24.483Z,100210.13
2022-11-05T07:00:19.276Z,100222.59
2022-11-05T07:05:12.826Z,100235.94
2022-11-05T07:10:09.515Z,100213.69
2022-11-05T07:15:03.646Z,100252.09
2022-11-05T07:19:57.174Z,100272.25
2022-11-05T07:24:51.170Z,100250.78
2022-11-05T07:29:44.821Z,100267.13
2022-11-05T07:34:38.847Z,100253.16
2022-11-05T07:39:32.865Z,100279.13
2022-11-05T07:44:26.179Z,100288.97
2022-11-05T07:49:23.911Z,100293.22
2022-11-05T07:54:17.759Z,100301.25
2022-11-05T07:59:12.055Z,100300.47
2022-11-05T08:04:05.799Z,100293.31
2022-11-05T08:08:59.999Z,100314.53
2022-11-05T08:13:53.955Z,100294.81
2022-11-05T08:18:47.779Z,100306.13
2022-11-05T08:23:42.948Z,100335.50
2022-11-05T08:28:36.801Z,100348.34
2022-11-05T08:33:32.292Z,100339.94
2022-11-05T08:38:26.293Z,100322.94
2022-11-05T08:43:18.880Z,100347.06
2022-11-05T08:48:17.794Z,100327.28
2022-11-05T08:53:12.097Z,100350.81
2022-11-05T08:58:08.419Z,100342.00
2022-11-05T09:03:03.133Z,100353.34
2022-11-05T09:08:00.924Z,100345.91
2022-11-05T09:12:55.105Z,100359.88
2022-11-05T09:17:49.343Z,100349.56
2022-11-05T09:22:43.619Z,100366.19
2022-11-05T09:27:37.507Z,100359.31
2022-11-05T09:32:32.425Z,100382.38
2022-11-05T09:37:25.770Z,100382.44
2022-11-05T09:42:24.189Z,100387.75
2022-11-05T09:47:39.002Z,100395.59
2022-11-05T09:52:34.147Z,100366.09
2022-11-05T09:57:42.497Z,100368.66
2022-11-05T10:02:42.497Z,100382.66
2022-11-05T10:08:00.657Z,100378.38
2022-11-05T10:12:57.706Z,100393.03
2022-11-05T10:17:56.854Z,100380.00
2022-11-05T10:22:56.896Z,100400.22
2022-11-05T10:27:55.114Z,100400.22
2022-11-05T10:32:53.539Z,100403.53
2022-11-05T10:37:47.208Z,100381.50
2022-11-05T10:42:51.967Z,100409.03
2022-11-05T10:48:00.670Z,100407.97
2022-11-05T10:52:56.710Z,100401.66
2022-11-05T10:57:51.044Z,100375.44
2022-11-05T11:02:56.591Z,100393.91
2022-11-05T11:08:25.412Z,100382.28
2022-11-05T11:13:50.725Z,100392.47
2022-11-05T11:18:45.851Z,100368.38
2022-11-05T11:23:41.410Z,100375.88
2022-11-05T11:28:33.569Z,100386.91
2022-11-05T11:33:28.765Z,100363.16
2022-11-05T11:38:25.459Z,100376.25
2022-11-05T11:43:30.629Z,100380.47
2022-11-05T11:48:28.414Z,100383.13
2022-11-05T11:53:20.921Z,100377.84
2022-11-05T11:58:18.686Z,100385.78
2022-11-05T12:03:25.860Z,100386.44
2022-11-05T12:08:44.375Z,100373.78
2022-11-05T12:13:53.127Z,100411.00
2022-11-05T12:18:55.298Z,100399.56
2022-11-05T12:24:00.606Z,100414.59
2022-11-05T12:29:19.832Z,100411.94
2022-11-05T12:34:18.173Z,100404.00
2022-11-05T12:39:34.155Z,100401.66
2022-11-05T12:44:49.882Z,100390.78
2022-11-05T12:50:19.016Z,100391.72
2022-11-05T12:55:19.133Z,100381.13
2022-11-05T13:00:26.365Z,100390.03
2022-11-05T13:05:38.208Z,100372.34
2022-11-05T13:10:35.326Z,100390.13
2022-11-05T13:15:54.685Z,100387.75
2022-11-05T13:21:08.761Z,100393.06
2022-11-05T13:26:11.786Z,100396.53
2022-11-05T13:31:13.931Z,100400.13
2022-11-05T13:36:28.510Z,100397.97
2022-11-05T13:41:21.791Z,100400.44
2022-11-05T13:46:17.590Z,100397.59
2022-11-05T13:51:22.682Z,100408.09
2022-11-05T13:56:53.219Z,100408.00
2022-11-05T14:02:02.637Z,100378.13
2022-11-05T14:07:27.012Z,100406.22
2022-11-05T14:12:27.326Z,100386.63
2022-11-05T14:17:35.202Z,100398.28
2022-11-05T14:22:33.420Z,100426.53
2022-11-05T14:27:25.907Z,100429.94
2022-11-05T14:32:38.029Z,100420.22
2022-11-05T14:37:34.885Z,100406.94
2022-11-05T14:42:30.305Z,100425.84
2022-11-05T14:47:25.825Z,100430.13
2022-11-05T14:52:20.729Z,100439.00
2022-11-05T14:57:17.547Z,100426.78
2022-11-05T15:02:18.878Z,100398.03
2022-11-05T15:07:11.741Z,100429.34
2022-11-05T15:12:12.020Z,100413.44
2022-11-05T15:17:23.475Z,100433.00
2022-11-05T15:22:29.757Z,100418.06
2022-11-05T15:27:43.006Z,100439.25
2022-11-05T15:32:38.588Z,100437.84
2022-11-05T15:37:32.638Z,100442.94
2022-11-05T15:42:27.651Z,100428.47
2022-11-05T15:47:21.800Z,100446.44
2022-11-05T15:52:16.713Z,100438.31
2022-11-05T15:57:23.939Z,100429.81
2022-11-05T16:02:29.281Z,100435.75
2022-11-05T16:08:04.736Z,100446.34
2022-11-05T16:13:18.174Z,100442.09
2022-11-05T16:18:41.475Z,100457.09
2022-11-05T16:24:00.527Z,100443.81
2022-11-05T16:28:54.424Z,100458.72
2022-11-05T16:33:48.740Z,100472.53
2022-11-05T16:38:43.267Z,100473.22
2022-11-05T16:43:37.655Z,100455.31
2022-11-05T16:48:30.743Z,100480.81
2022-11-05T16:53:24.775Z,100450.97
2022-11-05T16:58:26.943Z,100471.50
2022-11-05T17:03:21.375Z,100492.88
2022-11-05T17:08:15.836Z,100498.94
2022-11-05T17:13:19.870Z,100516.53
2022-11-05T17:18:18.149Z,100494.38
2022-11-05T17:23:17.918Z,100521.59
2022-11-05T17:28:12.272Z,100522.09
2022-11-05T17:33:07.362Z,100510.84
2022-11-05T17:38:01.551Z,100502.91
2022-11-05T17:42:54.561Z,100536.66
2022-11-05T17:47:47.890Z,100546.97
2022-11-05T17:52:40.447Z,100527.41
2022-11-05T17:57:34.472Z,100529.16
2022-11-05T18:02:30.286Z,100559.38
2022-11-05T18:07:24.640Z,100547.91
2022-11-05T18:12:18.494Z,100517.34
2022-11-05T18:17:11.789Z,100561.91
2022-11-05T18:22:05.119Z,100545.75
2022-11-05T18:26:59.076Z,100555.94
2022-11-05T18:31:53.150Z,100555.78
2022-11-05T18:36:52.053Z,100565.50
2022-11-05T18:41:48.027Z,100564.00
2022-11-05T18:46:57.607Z,100582.72
2022-11-05T18:51:52.317Z,100581.59
2022-11-05T18:56:47.426Z,100591.06
2022-11-05T19:01:40.784Z,100591.81
2022-11-05T19:06:35.401Z,100583.56
2022-11-05T19:11:28.703Z,100593.78
2022-11-05T19:16:24.868Z,100583.84
2022-11-05T19:21:21.829Z,100603.63
2022-11-05T19:26:21.834Z,100618.75
2022-11-05T19:31:22.334Z,100620.63
2022-11-05T19:36:17.314Z,100623.19
2022-11-05T19:41:14.898Z,100591.41
2022-11-05T19:46:08.641Z,100629.69
2022-11-05T19:51:05.537Z,100635.84
2022-11-05T19:55:59.267Z,100639.53
2022-11-05T20:00:55.646Z,100625.22
2022-11-05T20:05:49.826Z,100649.53
2022-11-05T20:10:43.486Z,100640.53
2022-11-05T20:15:41.163Z,100627.19
2022-11-05T20:20:35.374Z,100652.38
2022-11-05T20:25:29.410Z,100648.50
2022-11-05T20:30:22.824Z,100658.28
2022-11-05T20:35:16.291Z,100663.81
2022-11-05T20:40:08.645Z,100683.97
2022-11-05T20:45:03.262Z,100687.53
2022-11-05T20:49:58.457Z,100695.72
2022-11-05T20:54:52.158Z,100650.94
2022-11-05T20:59:45.255Z,100650.06
2022-11-05T21:04:40.706Z,100687.72
2022-11-05T21:09:34.687Z,100707.94
2022-11-05T21:14:28.012Z,100670.47
2022-11-05T21:19:24.670Z,100709.81
2022-11-05T21:24:18.562Z,100692.91
2022-11-05T21:29:13.210Z,100696.34
2022-11-05T21:34:06.629Z,100730.22
2022-11-05T21:39:00.310Z,100732.09
2022-11-05T21:43:53.817Z,100725.09
2022-11-05T21:48:47.372Z,100714.34
2022-11-05T21:53:59.295Z,100714.34
2022-11-05T21:59:11.530Z,100707.34
2022-11-05T22:04:05.504Z,100731.50
2022-11-05T22:08:59.559Z,100727.16
2022-11-05T22:13:53.268Z,100717.91
2022-11-05T22:18:47.073Z,100729.19
2022-11-05T22:23:41.185Z,100729.84
2022-11-05T22:28:34.072Z,100736.19
2022-11-05T22:33:27.045Z,100736.28
2022-11-05T22:38:20.465Z,100741.47
2022-11-05T22:43:13.576Z,100722.63
2022-11-05T22:48:08.695Z,100733.63
2022-11-05T22:53:02.239Z,100722.63
2022-11-05T22:58:00.076Z,100738.97
2022-11-05T23:02:55.258Z,100746.91
2022-11-05T23:08:06.545Z,100723.53
2022-11-05T23:13:00.437Z,100736.16
2022-11-05T23:18:12.804Z,100757.84
2022-11-05T23:23:28.510Z,100753.59
2022-11-05T23:28:22.513Z,100754.94
2022-11-05T23:33:16.044Z,100786.94
2022-11-05T23:38:28.438Z,100795.81
2022-11-05T23:43:40.578Z,100786.09
2022-11-05T23:48:38.571Z,100774.66
2022-11-05T23:53:33.411Z,100781.81
2022-11-05T23:58:26.813Z,100786.31
